createdAt,value
2017-06-26T00:01:28.847Z,22.60
2017-06-26T00:03:56.292Z,22.50
2017-06-26T00:06:23.724Z,22.50
2017-06-26T00:08:51.165Z,22.50
2017-06-26T00:11:18.754Z,22.50
2017-06-26T00:13:46.195Z,22.40
2017-06-26T00:16:13.632Z,22.30
2017-06-26T00:18:41.072Z,22.30
2017-06-26T00:21:08.516Z,22.30
2017-06-26T00:23:35.940Z,22.20
2017-06-26T00:26:03.380Z,22.30
2017-06-26T00:28:30.828Z,22.10
2017-06-26T00:30:58.289Z,22.10
2017-06-26T00:33:25.725Z,22.10
2017-06-26T00:35:53.151Z,22.00
2017-06-26T00:38:20.607Z,22.00
2017-06-26T00:40:48.045Z,21.90
2017-06-26T00:43:15.468Z,21.90
2017-06-26T00:45:42.909Z,21.90
2017-06-26T00:48:10.336Z,21.80
2017-06-26T00:50:37.772Z,21.80
2017-06-26T00:53:05.204Z,21.60
2017-06-26T00:55:32.677Z,21.50
2017-06-26T00:58:00.099Z,21.40
2017-06-26T01:00:27.582Z,21.20
2017-06-26T01:02:55.012Z,21.20
2017-06-26T01:05:22.439Z,21.10
2017-06-26T01:07:49.888Z,21.10
2017-06-26T01:10:17.365Z,21.10
2017-06-26T01:12:44.800Z,20.90
2017-06-26T01:15:12.227Z,20.80
2017-06-26T01:17:39.700Z,20.80
2017-06-26T01:20:07.144Z,20.70
2017-06-26T01:22:35.340Z,20.70
2017-06-26T01:25:02.778Z,20.70
2017-06-26T01:27:30.207Z,20.70
2017-06-26T01:29:57.659Z,20.70
2017-06-26T01:32:25.883Z,20.80
2017-06-26T01:34:53.332Z,20.70
2017-06-26T01:37:20.760Z,20.80
2017-06-26T01:39:48.196Z,20.80
2017-06-26T01:42:15.641Z,20.90
2017-06-26T01:44:43.075Z,20.90
2017-06-26T01:47:10.507Z,20.90
2017-06-26T01:49:37.939Z,20.90
2017-06-26T01:52:05.381Z,20.90
2017-06-26T01:54:32.824Z,21.00
2017-06-26T01:57:00.289Z,21.00
2017-06-26T01:59:27.720Z,21.00
2017-06-26T02:01:55.152Z,21.00
2017-06-26T02:04:22.589Z,21.00
2017-06-26T02:06:50.024Z,21.00
2017-06-26T02:09:17.453Z,20.90
2017-06-26T02:11:44.890Z,20.90
2017-06-26T02:14:12.356Z,20.90
2017-06-26T02:16:39.783Z,20.80
2017-06-26T02:19:07.217Z,20.80
2017-06-26T02:21:35.421Z,20.70
2017-06-26T02:24:02.853Z,20.70
2017-06-26T02:26:30.288Z,20.70
2017-06-26T02:28:57.716Z,20.80
2017-06-26T02:31:25.164Z,20.80
2017-06-26T02:33:52.614Z,20.80
2017-06-26T02:36:20.035Z,20.80
2017-06-26T02:38:47.477Z,20.70
2017-06-26T02:41:15.684Z,20.70
2017-06-26T02:43:43.136Z,20.70
2017-06-26T02:46:10.698Z,20.60
2017-06-26T02:48:38.158Z,20.60
2017-06-26T02:51:06.350Z,20.60
2017-06-26T02:53:33.784Z,20.60
2017-06-26T02:56:01.216Z,20.60
2017-06-26T02:58:28.648Z,20.50
2017-06-26T03:00:56.856Z,20.30
2017-06-26T03:03:24.317Z,20.30
2017-06-26T03:05:51.767Z,20.30
2017-06-26T03:08:19.206Z,20.30
2017-06-26T03:10:46.627Z,20.20
2017-06-26T03:13:14.991Z,20.20
2017-06-26T03:15:42.478Z,20.10
2017-06-26T03:18:10.680Z,19.90
2017-06-26T03:20:38.169Z,19.90
2017-06-26T03:23:05.712Z,19.80
2017-06-26T03:25:33.136Z,19.80
2017-06-26T03:28:00.567Z,19.70
2017-06-26T03:30:28.000Z,19.70
2017-06-26T03:32:55.428Z,19.70
2017-06-26T03:35:22.874Z,19.80
2017-06-26T03:37:50.295Z,19.90
2017-06-26T03:40:17.824Z,20.00
2017-06-26T03:42:46.016Z,20.20
2017-06-26T03:45:13.448Z,20.20
2017-06-26T03:47:40.926Z,20.30
2017-06-26T03:50:08.362Z,20.40
2017-06-26T03:52:35.888Z,20.50
2017-06-26T03:55:03.320Z,20.50
2017-06-26T03:57:30.801Z,20.50
2017-06-26T03:59:59.366Z,20.60
2017-06-26T04:02:26.791Z,20.60
2017-06-26T04:04:54.224Z,20.60
2017-06-26T04:07:21.656Z,20.60
2017-06-26T04:09:49.095Z,20.60
2017-06-26T04:12:16.532Z,20.60
2017-06-26T04:14:44.748Z,20.60
2017-06-26T04:17:12.181Z,20.60
2017-06-26T04:19:39.608Z,20.50
2017-06-26T04:22:07.052Z,20.60
2017-06-26T04:24:34.541Z,20.60
2017-06-26T04:27:02.078Z,20.60
2017-06-26T04:29:29.608Z,20.60
2017-06-26T04:31:57.048Z,20.60
2017-06-26T04:34:24.484Z,20.60
2017-06-26T04:36:51.952Z,20.60
2017-06-26T04:39:19.424Z,20.70
2017-06-26T04:41:47.624Z,20.90
2017-06-26T04:44:15.069Z,20.90
2017-06-26T04:46:42.516Z,20.90
2017-06-26T04:49:10.025Z,21.00
2017-06-26T04:51:38.209Z,21.20
2017-06-26T04:54:05.644Z,21.10
2017-06-26T04:56:33.205Z,21.20
2017-06-26T04:59:00.622Z,21.30
2017-06-26T05:01:28.117Z,21.40
2017-06-26T05:03:55.559Z,21.50
2017-06-26T05:06:23.017Z,21.60
2017-06-26T05:08:50.543Z,21.80
2017-06-26T05:11:17.994Z,22.00
2017-06-26T05:13:45.446Z,22.40
2017-06-26T05:16:12.918Z,22.70
2017-06-26T05:18:40.380Z,23.00
2017-06-26T05:21:07.822Z,23.40
2017-06-26T05:23:35.268Z,23.80
2017-06-26T05:26:02.709Z,24.30
2017-06-26T05:28:30.164Z,24.90
2017-06-26T05:30:57.605Z,25.40
2017-06-26T05:33:25.164Z,25.90
2017-06-26T05:35:52.621Z,26.40
2017-06-26T05:38:20.057Z,26.90
2017-06-26T05:40:47.516Z,27.40
2017-06-26T05:43:14.998Z,27.70
2017-06-26T05:45:42.468Z,28.00
2017-06-26T05:48:09.882Z,28.30
2017-06-26T05:50:37.308Z,28.70
2017-06-26T05:53:04.758Z,28.80
2017-06-26T05:55:32.187Z,29.20
2017-06-26T05:58:00.421Z,29.70
2017-06-26T06:00:27.848Z,29.70
2017-06-26T06:02:55.301Z,30.00
2017-06-26T06:05:22.728Z,30.40
2017-06-26T06:07:50.164Z,30.70
2017-06-26T06:10:17.681Z,30.70
2017-06-26T06:12:45.200Z,30.70
2017-06-26T06:15:12.665Z,30.70
2017-06-26T06:17:40.120Z,30.80
2017-06-26T06:20:07.557Z,31.10
2017-06-26T06:22:35.042Z,31.00
2017-06-26T06:25:02.482Z,30.90
2017-06-26T06:27:29.907Z,30.80
2017-06-26T06:29:57.340Z,30.60
2017-06-26T06:32:24.816Z,30.60
2017-06-26T06:34:52.244Z,30.90
2017-06-26T06:37:19.690Z,30.80
2017-06-26T06:39:47.124Z,30.80
2017-06-26T06:42:14.556Z,30.80
2017-06-26T06:44:41.995Z,30.90
2017-06-26T06:47:09.436Z,31.10
2017-06-26T06:49:36.866Z,31.40
2017-06-26T06:52:04.296Z,31.50
2017-06-26T06:54:31.776Z,31.60
2017-06-26T06:56:59.213Z,31.60
2017-06-26T06:59:27.565Z,31.60
2017-06-26T07:01:54.999Z,31.90
2017-06-26T07:04:22.596Z,31.40
2017-06-26T07:06:50.140Z,31.70
2017-06-26T07:09:17.575Z,32.00
2017-06-26T07:11:45.009Z,32.10
2017-06-26T07:14:12.497Z,32.20
2017-06-26T07:16:40.706Z,32.70
2017-06-26T07:19:08.132Z,32.60
2017-06-26T07:21:35.586Z,32.90
2017-06-26T07:24:03.056Z,33.10
2017-06-26T07:26:30.499Z,32.90
2017-06-26T07:28:57.958Z,32.80
2017-06-26T07:31:25.384Z,32.60
2017-06-26T07:33:52.956Z,32.70
2017-06-26T07:36:21.143Z,33.00
2017-06-26T07:38:48.647Z,32.90
2017-06-26T07:41:16.068Z,33.30
2017-06-26T07:43:43.615Z,33.70
2017-06-26T07:46:11.048Z,34.00
2017-06-26T07:48:38.491Z,34.20
2017-06-26T07:51:05.947Z,34.20
2017-06-26T07:53:33.401Z,34.20
2017-06-26T07:56:00.924Z,34.30
2017-06-26T07:58:28.366Z,34.40
2017-06-26T08:00:55.812Z,34.30
2017-06-26T08:03:23.252Z,34.10
2017-06-26T08:05:50.701Z,34.00
2017-06-26T08:08:18.143Z,34.10
2017-06-26T08:10:45.572Z,33.50
2017-06-26T08:13:13.019Z,33.30
2017-06-26T08:15:40.469Z,33.00
2017-06-26T08:18:07.916Z,32.90
2017-06-26T08:20:35.372Z,33.10
2017-06-26T08:23:02.811Z,33.50
2017-06-26T08:25:30.356Z,33.60
2017-06-26T08:27:57.787Z,33.80
2017-06-26T08:30:25.228Z,33.90
2017-06-26T08:32:52.656Z,34.20
2017-06-26T08:35:20.250Z,34.20
2017-06-26T08:37:47.771Z,34.30
2017-06-26T08:40:15.219Z,34.20
2017-06-26T08:42:42.662Z,33.80
2017-06-26T08:45:10.197Z,33.80
2017-06-26T08:47:37.635Z,33.70
2017-06-26T08:50:05.068Z,33.60
2017-06-26T08:52:32.647Z,34.00
2017-06-26T08:55:00.888Z,34.70
2017-06-26T08:57:28.330Z,34.70
2017-06-26T08:59:55.764Z,34.90
2017-06-26T09:02:23.236Z,35.00
2017-06-26T09:04:51.476Z,34.60
2017-06-26T09:07:18.964Z,34.60
2017-06-26T09:09:46.473Z,34.30
2017-06-26T09:12:14.088Z,33.90
2017-06-26T09:14:41.561Z,34.20
2017-06-26T09:17:09.199Z,34.60
2017-06-26T09:19:36.661Z,34.60
2017-06-26T09:22:04.202Z,34.50
2017-06-26T09:24:31.627Z,34.50
2017-06-26T09:26:59.056Z,34.60
2017-06-26T09:29:26.525Z,35.10
2017-06-26T09:31:53.956Z,35.20
2017-06-26T09:34:21.540Z,35.40
2017-06-26T09:36:49.737Z,35.60
2017-06-26T09:39:17.184Z,35.60
2017-06-26T09:41:44.652Z,35.90
2017-06-26T09:44:12.084Z,36.20
2017-06-26T09:46:39.540Z,35.80
2017-06-26T09:49:07.079Z,35.60
2017-06-26T09:51:34.837Z,35.50
2017-06-26T09:54:02.390Z,35.70
2017-06-26T09:56:29.851Z,35.90
2017-06-26T09:58:58.076Z,35.60
2017-06-26T10:01:25.524Z,35.50
2017-06-26T10:03:52.965Z,35.40
2017-06-26T10:06:20.528Z,35.40
2017-06-26T10:08:48.728Z,35.70
2017-06-26T10:11:16.212Z,35.70
2017-06-26T10:13:43.675Z,36.20
2017-06-26T10:16:11.872Z,36.70
2017-06-26T10:18:39.468Z,36.70
2017-06-26T10:21:06.904Z,37.10
2017-06-26T10:23:34.371Z,37.10
2017-06-26T10:26:02.607Z,36.80
2017-06-26T10:28:30.052Z,36.80
2017-06-26T10:30:57.526Z,37.00
2017-06-26T10:33:24.960Z,36.80
2017-06-26T10:35:53.236Z,36.80
2017-06-26T10:38:20.754Z,36.80
2017-06-26T10:40:48.189Z,36.70
2017-06-26T10:43:15.912Z,36.00
2017-06-26T10:45:43.420Z,35.70
2017-06-26T10:48:11.628Z,36.20
2017-06-26T10:50:39.117Z,36.20
2017-06-26T10:53:07.347Z,35.70
2017-06-26T10:55:34.925Z,35.70
2017-06-26T10:58:02.362Z,34.80
2017-06-26T11:00:30.596Z,33.40
2017-06-26T11:02:58.040Z,33.30
2017-06-26T11:05:25.508Z,32.60
2017-06-26T11:07:53.740Z,31.70
2017-06-26T11:10:21.192Z,31.60
2017-06-26T11:12:48.628Z,31.20
2017-06-26T11:15:16.056Z,31.00
2017-06-26T11:17:43.500Z,30.90
2017-06-26T11:20:11.033Z,30.80
2017-06-26T11:22:38.500Z,30.60
2017-06-26T11:25:05.951Z,30.40
2017-06-26T11:27:34.203Z,30.10
2017-06-26T11:30:01.747Z,30.10
2017-06-26T11:32:29.183Z,30.00
2017-06-26T11:34:56.688Z,30.10
2017-06-26T11:37:24.112Z,29.90
2017-06-26T11:39:51.565Z,29.70
2017-06-26T11:42:18.987Z,29.60
2017-06-26T11:44:47.229Z,29.50
2017-06-26T11:47:14.765Z,29.50
2017-06-26T11:49:42.196Z,29.60
2017-06-26T11:52:09.744Z,29.60
2017-06-26T11:54:37.187Z,29.70
2017-06-26T11:57:04.684Z,29.70
2017-06-26T11:59:32.187Z,29.60
2017-06-26T12:01:59.620Z,29.50
2017-06-26T12:04:27.071Z,29.50
2017-06-26T12:06:54.505Z,29.40
2017-06-26T12:09:21.944Z,29.30
2017-06-26T12:11:49.610Z,29.20
2017-06-26T12:14:17.031Z,29.30
2017-06-26T12:16:44.489Z,29.40
2017-06-26T12:19:11.928Z,29.50
2017-06-26T12:21:39.364Z,29.60
2017-06-26T12:24:06.796Z,29.70
2017-06-26T12:26:34.236Z,29.70
2017-06-26T12:29:01.681Z,29.60
2017-06-26T12:31:29.243Z,29.50
2017-06-26T12:33:57.072Z,29.60
2017-06-26T12:36:24.536Z,29.60
2017-06-26T12:38:51.999Z,29.60
2017-06-26T12:41:20.254Z,29.60
2017-06-26T12:43:47.761Z,29.60
2017-06-26T12:46:15.232Z,29.40
2017-06-26T12:48:42.687Z,29.30
2017-06-26T12:51:10.939Z,29.50
2017-06-26T12:53:38.481Z,29.50
2017-06-26T12:56:05.917Z,29.60
2017-06-26T12:58:33.356Z,29.50
2017-06-26T13:01:00.793Z,29.50
2017-06-26T13:03:28.243Z,29.60
2017-06-26T13:05:55.690Z,29.50
2017-06-26T13:08:23.122Z,29.60
2017-06-26T13:10:50.561Z,29.60
2017-06-26T13:13:17.999Z,29.60
2017-06-26T13:15:45.486Z,29.70
2017-06-26T13:18:13.748Z,29.80
2017-06-26T13:20:41.292Z,29.70
2017-06-26T13:23:09.541Z,29.80
2017-06-26T13:25:36.991Z,29.70
2017-06-26T13:28:05.198Z,29.80
2017-06-26T13:30:32.633Z,29.80
2017-06-26T13:33:00.079Z,29.90
2017-06-26T13:35:27.511Z,29.90
2017-06-26T13:37:54.942Z,29.80
2017-06-26T13:40:22.452Z,29.80
2017-06-26T13:42:49.875Z,29.80
2017-06-26T13:45:17.337Z,29.90
2017-06-26T13:47:44.885Z,30.00
2017-06-26T13:50:12.499Z,30.00
2017-06-26T13:52:39.915Z,30.10
2017-06-26T13:55:07.361Z,30.10
2017-06-26T13:57:34.869Z,30.20
2017-06-26T14:00:03.089Z,30.30
2017-06-26T14:02:30.724Z,30.30
2017-06-26T14:04:58.148Z,30.30
2017-06-26T14:07:25.602Z,30.30
2017-06-26T14:09:53.085Z,30.30
2017-06-26T14:12:20.641Z,30.40
2017-06-26T14:14:48.073Z,30.40
2017-06-26T14:17:15.502Z,30.50
2017-06-26T14:19:42.976Z,30.60
2017-06-26T14:22:10.399Z,30.70
2017-06-26T14:24:37.844Z,30.70
2017-06-26T14:27:05.297Z,30.70
2017-06-26T14:29:32.832Z,30.60
2017-06-26T14:32:00.276Z,30.50
2017-06-26T14:34:27.719Z,30.50
2017-06-26T14:36:55.185Z,30.60
2017-06-26T14:39:22.781Z,30.50
2017-06-26T14:41:50.222Z,30.50
2017-06-26T14:44:17.660Z,30.50
2017-06-26T14:46:45.138Z,30.60
2017-06-26T14:49:12.579Z,30.60
2017-06-26T14:51:40.008Z,30.60
2017-06-26T14:54:07.455Z,30.70
2017-06-26T14:56:34.907Z,30.80
2017-06-26T14:59:02.556Z,30.70
2017-06-26T15:01:29.991Z,30.70
2017-06-26T15:03:57.413Z,30.80
2017-06-26T15:06:24.873Z,30.80
2017-06-26T15:08:52.544Z,30.70
2017-06-26T15:11:20.788Z,30.80
2017-06-26T15:13:48.228Z,30.80
2017-06-26T15:16:15.688Z,30.80
2017-06-26T15:18:43.217Z,30.90
2017-06-26T15:21:10.656Z,30.90
2017-06-26T15:23:38.094Z,30.80
2017-06-26T15:26:05.573Z,30.80
2017-06-26T15:28:33.091Z,30.80
2017-06-26T15:31:00.560Z,30.80
2017-06-26T15:33:28.764Z,30.60
2017-06-26T15:35:56.246Z,30.60
2017-06-26T15:38:23.696Z,30.60
2017-06-26T15:40:51.200Z,30.60
2017-06-26T15:43:18.627Z,30.60
2017-06-26T15:45:46.192Z,30.50
2017-06-26T15:48:13.668Z,30.50
2017-06-26T15:50:41.109Z,30.50
2017-06-26T15:53:08.552Z,30.50
2017-06-26T15:55:36.062Z,30.50
2017-06-26T15:58:03.482Z,30.50
2017-06-26T16:00:30.911Z,30.60
2017-06-26T16:02:58.345Z,30.50
2017-06-26T16:05:25.884Z,30.30
2017-06-26T16:07:54.129Z,30.10
2017-06-26T16:10:21.544Z,30.10
2017-06-26T16:12:49.012Z,30.20
2017-06-26T16:15:16.553Z,30.20
2017-06-26T16:17:43.996Z,30.20
2017-06-26T16:20:11.439Z,30.00
2017-06-26T16:22:38.975Z,30.00
2017-06-26T16:25:06.418Z,29.80
2017-06-26T16:27:33.869Z,29.80
2017-06-26T16:30:01.409Z,29.70
2017-06-26T16:32:28.848Z,29.60
2017-06-26T16:34:56.278Z,29.60
2017-06-26T16:37:23.710Z,29.60
2017-06-26T16:39:51.176Z,29.60
2017-06-26T16:42:18.748Z,29.70
2017-06-26T16:44:46.952Z,29.60
2017-06-26T16:47:15.014Z,29.60
2017-06-26T16:49:42.451Z,29.60
2017-06-26T16:52:09.928Z,29.60
2017-06-26T16:54:37.525Z,29.40
2017-06-26T16:57:04.943Z,29.40
2017-06-26T16:59:33.159Z,29.30
2017-06-26T17:02:00.600Z,29.30
2017-06-26T17:04:28.038Z,29.20
2017-06-26T17:06:55.582Z,29.30
2017-06-26T17:09:23.056Z,29.30
2017-06-26T17:11:50.500Z,29.20
2017-06-26T17:14:17.924Z,29.20
2017-06-26T17:16:45.372Z,29.20
2017-06-26T17:19:12.812Z,29.20
2017-06-26T17:21:40.274Z,29.20
2017-06-26T17:24:07.700Z,29.00
2017-06-26T17:26:35.140Z,29.00
2017-06-26T17:29:02.614Z,29.00
2017-06-26T17:31:30.814Z,28.90
2017-06-26T17:33:58.257Z,28.80
2017-06-26T17:36:25.736Z,28.90
2017-06-26T17:38:53.189Z,28.80
2017-06-26T17:41:20.826Z,28.80
2017-06-26T17:43:48.276Z,28.90
2017-06-26T17:46:15.712Z,28.90
2017-06-26T17:48:43.180Z,29.00
2017-06-26T17:51:11.448Z,29.00
2017-06-26T17:53:38.965Z,29.00
2017-06-26T17:56:06.441Z,28.90
2017-06-26T17:58:34.660Z,28.80
2017-06-26T18:01:02.113Z,28.80
2017-06-26T18:03:29.656Z,28.70
2017-06-26T18:05:57.084Z,28.70
2017-06-26T18:08:24.528Z,28.70
2017-06-26T18:10:51.991Z,28.80
2017-06-26T18:13:19.411Z,28.90
2017-06-26T18:15:46.856Z,29.00
2017-06-26T18:18:14.281Z,28.90
2017-06-26T18:20:41.758Z,28.80
2017-06-26T18:23:09.184Z,28.80
2017-06-26T18:25:36.732Z,28.70
2017-06-26T18:28:04.183Z,28.60
2017-06-26T18:30:31.639Z,28.60
2017-06-26T18:32:59.057Z,28.50
2017-06-26T18:35:26.504Z,28.50
2017-06-26T18:37:54.020Z,28.40
2017-06-26T18:40:21.453Z,28.40
2017-06-26T18:42:48.899Z,28.40
2017-06-26T18:45:16.384Z,28.30
2017-06-26T18:47:43.820Z,28.30
2017-06-26T18:50:11.365Z,28.30
2017-06-26T18:52:38.807Z,28.20
2017-06-26T18:55:06.256Z,28.20
2017-06-26T18:57:33.687Z,28.10
2017-06-26T19:00:01.140Z,28.10
2017-06-26T19:02:28.574Z,28.10
2017-06-26T19:04:56.019Z,28.00
2017-06-26T19:07:23.543Z,28.00
2017-06-26T19:09:50.972Z,27.90
2017-06-26T19:12:18.412Z,27.90
2017-06-26T19:14:45.839Z,27.80
2017-06-26T19:17:13.933Z,27.70
2017-06-26T19:19:41.389Z,27.60
2017-06-26T19:22:08.838Z,27.50
2017-06-26T19:24:36.275Z,27.50
2017-06-26T19:27:03.737Z,27.50
2017-06-26T19:29:31.941Z,27.40
2017-06-26T19:31:59.376Z,27.40
2017-06-26T19:34:26.816Z,27.30
2017-06-26T19:36:54.260Z,27.30
2017-06-26T19:39:21.860Z,27.30
2017-06-26T19:41:49.504Z,27.30
2017-06-26T19:44:16.940Z,27.30
2017-06-26T19:46:44.393Z,27.20
2017-06-26T19:49:11.828Z,27.20
2017-06-26T19:51:39.271Z,27.20
2017-06-26T19:54:06.766Z,27.10
2017-06-26T19:56:34.186Z,27.10
2017-06-26T19:59:02.392Z,27.00
2017-06-26T20:01:29.987Z,27.00
2017-06-26T20:03:58.276Z,27.10
2017-06-26T20:06:25.712Z,27.10
2017-06-26T20:08:53.176Z,27.20
2017-06-26T20:11:20.624Z,27.20
2017-06-26T20:13:48.136Z,27.10
2017-06-26T20:16:16.388Z,27.10
2017-06-26T20:18:44.588Z,27.20
2017-06-26T20:21:12.069Z,27.20
2017-06-26T20:23:39.504Z,27.20
2017-06-26T20:26:06.964Z,27.30
2017-06-26T20:28:35.167Z,27.30
2017-06-26T20:31:02.655Z,27.30
2017-06-26T20:33:30.200Z,27.20
2017-06-26T20:35:57.636Z,27.30
2017-06-26T20:38:25.289Z,27.20
2017-06-26T20:40:52.837Z,27.20
2017-06-26T20:43:20.385Z,27.20
2017-06-26T20:45:47.850Z,27.20
2017-06-26T20:48:15.400Z,27.20
2017-06-26T20:50:42.916Z,27.20
2017-06-26T20:53:10.348Z,27.00
2017-06-26T20:55:37.812Z,27.00
2017-06-26T20:58:05.244Z,27.00
2017-06-26T21:00:32.686Z,27.00
2017-06-26T21:03:01.052Z,26.90
2017-06-26T21:05:28.509Z,26.90
2017-06-26T21:07:56.712Z,26.80
2017-06-26T21:10:24.144Z,26.80
2017-06-26T21:12:51.579Z,26.70
2017-06-26T21:15:19.012Z,26.70
2017-06-26T21:17:46.488Z,26.60
2017-06-26T21:20:14.012Z,26.60
2017-06-26T21:22:41.451Z,26.50
2017-06-26T21:25:08.884Z,26.50
2017-06-26T21:27:36.316Z,26.50
2017-06-26T21:30:04.520Z,26.50
2017-06-26T21:32:31.994Z,26.40
2017-06-26T21:34:59.536Z,26.40
2017-06-26T21:37:26.972Z,26.50
2017-06-26T21:39:54.401Z,26.50
2017-06-26T21:42:21.908Z,26.50
2017-06-26T21:44:50.104Z,26.40
2017-06-26T21:47:17.535Z,26.40
2017-06-26T21:49:45.017Z,26.40
2017-06-26T21:52:12.448Z,26.40
2017-06-26T21:54:39.904Z,26.30
2017-06-26T21:57:07.344Z,26.20
2017-06-26T21:59:34.807Z,26.10
2017-06-26T22:02:02.330Z,26.00
2017-06-26T22:04:29.873Z,25.90
2017-06-26T22:06:57.299Z,25.80
2017-06-26T22:09:24.747Z,25.80
2017-06-26T22:11:52.185Z,25.70
2017-06-26T22:14:19.636Z,25.70
2017-06-26T22:16:47.067Z,25.70
2017-06-26T22:19:14.508Z,25.50
2017-06-26T22:21:41.944Z,25.40
2017-06-26T22:24:09.399Z,25.40
2017-06-26T22:26:36.849Z,25.30
2017-06-26T22:29:04.301Z,25.30
2017-06-26T22:31:31.739Z,25.20
2017-06-26T22:33:59.180Z,25.30
2017-06-26T22:36:26.608Z,25.20
2017-06-26T22:38:54.049Z,25.20
2017-06-26T22:41:21.511Z,25.20
2017-06-26T22:43:49.076Z,25.20
2017-06-26T22:46:17.316Z,25.30
2017-06-26T22:48:44.733Z,25.20
2017-06-26T22:51:12.175Z,25.30
2017-06-26T22:53:39.635Z,25.30
2017-06-26T22:56:07.075Z,25.20
2017-06-26T22:58:34.631Z,25.10
2017-06-26T23:01:02.075Z,25.10
2017-06-26T23:03:29.521Z,25.10
2017-06-26T23:05:56.955Z,25.10
2017-06-26T23:08:24.392Z,25.10
2017-06-26T23:10:51.848Z,25.10
2017-06-26T23:13:19.288Z,25.00
2017-06-26T23:15:46.716Z,25.00
2017-06-26T23:18:14.172Z,24.90
2017-06-26T23:20:41.613Z,24.90
2017-06-26T23:23:09.040Z,24.80
2017-06-26T23:25:36.487Z,24.80
2017-06-26T23:28:03.911Z,24.80
2017-06-26T23:30:31.462Z,24.80
2017-06-26T23:32:58.927Z,24.80
2017-06-26T23:35:26.376Z,24.70
2017-06-26T23:37:53.804Z,24.70
2017-06-26T23:40:21.382Z,24.60
2017-06-26T23:42:49.604Z,24.50
2017-06-26T23:45:17.036Z,24.50
2017-06-26T23:47:44.505Z,24.50
2017-06-26T23:50:11.938Z,24.50
2017-06-26T23:52:39.473Z,24.50
2017-06-26T23:55:06.904Z,24.50
2017-06-26T23:57:34.382Z,24.60
